Latest Weather Observations for Carnarvon

IDW60801

Issued at 4:33 am WST Tuesday 24 January 2017 (issued every 30 minutes, with the page automatically refreshed every 10 minutes)

About weather observations | Map of weather stations | Latest weather observations for WA | Other Formats
Station Details ID: 006011 Name: CARNARVON AIRPORT Lat: -24.89 Lon: 113.67 Height: 4.0 m
Data from the previous 72 hours. | See also: Recent months at Carnarvon
Date/Time
WST
Temp
°C
App
Temp
°C
Dew
Point
°C
Rel
Hum
%
Delta-T
°C
Wind Press
QNH
hPa
Press
MSL
hPa
Rain since
9am
mm
Dir  Spd
km/h
Gust
km/h
Spd
kts
Gust
kts
24/04:30am 21.8 18.7 16.5 72 3.2 SSE 28 39 15 21 1008.5 - 0.0
24/04:00am 21.8 18.8 16.9 73 3.0 SSE 28 35 15 19 1008.5 - 0.0
24/03:30am 21.9 19.0 17.0 73 3.0 S 28 35 15 19 1008.2 - 0.0
24/03:00am 22.0 19.0 16.9 73 3.1 S 28 39 15 21 1008.5 1008.5 0.0
24/02:30am 22.2 18.6 17.2 73 3.1 S 32 39 17 21 1008.6 - 0.0
24/02:00am 22.3 18.6 17.4 74 3.0 S 33 46 18 25 1008.8 - 0.0
24/01:30am 22.5 19.1 17.8 75 2.9 S 32 41 17 22 1008.9 - 0.0
24/01:00am 22.6 19.4 18.1 76 2.8 S 32 43 17 23 1009.0 - 0.0
24/12:30am 22.7 19.0 18.4 76 2.7 S 35 48 19 26 1009.2 - 0.0
24/12:00am 22.8 18.3 18.2 75 2.9 S 39 48 21 26 1009.3 1009.3 0.0
 
Date/Time
WST
Temp
°C
App
Temp
°C
Dew
Point
°C
Rel
Hum
%
Delta-T
°C
Wind Press
QNH
hPa
Press
MSL
hPa
Rain since
9am
mm
Dir  Spd
km/h
Gust
km/h
Spd
kts
Gust
kts
23/11:30pm 22.8 18.7 18.3 76 2.8 S 37 48 20 26 1009.5 - 0.0
23/11:00pm 23.0 19.3 18.4 75 2.9 S 35 46 19 25 1009.7 - 0.0
23/10:30pm 23.1 18.2 18.2 74 3.1 S 41 54 22 29 1009.6 - 0.0
23/10:00pm 23.2 19.5 18.3 74 3.1 S 35 48 19 26 1009.5 - 0.0
23/09:00pm 23.6 19.6 18.5 73 3.2 S 37 44 20 24 1009.6 1009.6 0.0
23/08:30pm 24.1 19.8 17.9 68 3.9 S 37 46 20 25 1009.3 - 0.0
23/08:00pm 23.9 21.2 19.7 77 2.7 SSW 33 44 18 24 1008.9 - 0.0
23/07:30pm 24.0 20.3 19.1 74 3.1 SSW 37 50 20 27 1008.5 - 0.0
23/07:00pm 24.4 20.3 19.1 72 3.4 SSW 39 50 21 27 1008.2 - 0.0
23/06:30pm 24.6 20.5 19.1 71 3.5 SSW 39 54 21 29 1007.9 - 0.0
23/06:00pm 25.7 22.1 19.3 67 4.1 SSW 37 48 20 26 1007.6 1007.6 0.0
23/05:30pm 25.8 22.2 19.4 67 4.1 SSW 37 50 20 27 1007.4 - 0.0
23/05:00pm 26.6 23.0 19.3 64 4.7 SSW 37 50 20 27 1007.5 - 0.0
23/04:30pm 26.2 22.0 19.0 64 4.6 SSW 39 50 21 27 1007.4 - 0.0
23/04:00pm 27.9 24.2 18.4 56 6.1 SSW 35 48 19 26 1007.7 - 0.0
23/03:30pm 28.7 22.3 13.2 38 9.2 S 39 46 21 25 1008.0 - 0.0
23/03:00pm 27.7 21.3 14.4 44 8.0 S 41 50 22 27 1008.3 1008.3 0.0
23/02:30pm 27.7 20.9 13.1 40 8.6 S 41 56 22 30 1008.6 - 0.0
23/02:00pm 27.0 20.5 13.9 44 7.8 S 41 50 22 27 1008.9 - 0.0
23/01:30pm 27.2 20.7 13.9 44 7.9 S 41 50 22 27 1009.4 - 0.0
23/01:00pm 26.5 19.4 13.4 44 7.7 S 43 54 23 29 1009.8 - 0.0
23/12:30pm 26.1 19.7 14.4 48 7.0 S 41 50 22 27 1010.2 - 0.0
23/12:00pm 25.8 19.3 12.9 44 7.5 S 39 50 21 27 1010.5 1010.5 0.0
23/11:30am 25.9 19.7 12.8 44 7.6 S 37 50 20 27 1010.8 - 0.0
23/11:00am 26.2 20.4 11.4 39 8.4 S 33 43 18 23 1011.0 - 0.0
23/10:30am 24.9 19.0 11.0 41 7.8 S 33 46 18 25 1011.3 - 0.0
23/10:00am 23.9 16.9 11.2 44 7.1 S 39 48 21 26 1011.5 - 0.0
23/09:30am 23.1 15.4 11.5 48 6.5 SSE 43 56 23 30 1011.6 - 0.0
23/09:00am 22.6 15.3 11.5 49 6.2 SSE 41 54 22 29 1011.8 1011.8 0.0
23/08:30am 21.9 14.3 11.9 53 5.6 SSE 43 61 23 33 1012.0 - 0.0
23/08:00am 21.7 15.0 13.4 59 4.8 SSE 41 56 22 30 1012.1 - 0.0
23/07:30am 20.8 14.1 13.5 63 4.2 SSE 41 52 22 28 1012.0 - 0.0
23/07:00am 20.3 15.3 13.5 65 3.9 SSE 32 43 17 23 1011.7 - 0.0
23/06:30am 19.6 15.1 13.7 68 3.4 SSE 30 39 16 21 1011.3 - 0.0
23/06:00am 19.8 14.5 14.3 70 3.2 SSE 35 50 19 27 1010.9 1010.9 0.0
23/05:30am 19.9 15.3 14.6 71 3.1 SSE 32 41 17 22 1010.4 - 0.0
23/05:00am 20.1 16.2 15.4 74 2.8 S 30 39 16 21 1010.1 - 0.0
23/04:30am 20.2 15.7 15.3 73 2.9 S 33 43 18 23 1009.9 - 0.0
23/04:00am 20.3 14.6 15.2 72 3.0 S 39 50 21 27 1009.6 - 0.0
23/03:30am 20.4 15.0 15.0 71 3.2 S 37 50 20 27 1009.5 - 0.0
23/03:00am 20.6 15.1 14.8 69 3.4 S 37 50 20 27 1009.4 1009.4 0.0
23/02:47am 20.7 15.6 14.9 69 3.4 S 35 54 19 29 1009.3 - 0.0
23/02:30am 20.9 14.9 15.5 71 3.2 S 41 52 22 28 1009.3 - 0.0
23/02:10am 21.1 15.1 15.4 70 3.4 S 41 61 22 33 1009.3 - 0.0
23/02:00am 21.2 15.4 15.9 72 3.2 S 41 54 22 29 1009.4 - 0.0
23/01:30am 21.5 16.0 16.7 74 2.9 S 41 52 22 28 1009.5 - 0.0
23/01:00am 21.5 16.1 17.1 76 2.7 S 41 52 22 28 1009.5 - 0.0
23/12:30am 21.7 16.4 17.3 76 2.7 S 41 56 22 30 1009.7 - 0.0
23/12:00am 21.9 16.3 17.4 75 2.8 S 43 59 23 32 1009.7 1009.7 0.0
 
Date/Time
WST
Temp
°C
App
Temp
°C
Dew
Point
°C
Rel
Hum
%
Delta-T
°C
Wind Press
QNH
hPa
Press
MSL
hPa
Rain since
9am
mm
Dir  Spd
km/h
Gust
km/h
Spd
kts
Gust
kts
22/11:30pm 22.1 16.5 17.9 77 2.6 S 44 59 24 32 1009.8 - 0.0
22/11:00pm 22.4 17.0 17.9 75 2.8 S 43 56 23 30 1009.8 - 0.0
22/10:30pm 22.5 17.5 18.0 75 2.8 S 41 56 22 30 1009.7 - 0.0
22/10:00pm 22.6 17.2 17.8 74 3.0 S 43 56 23 30 1009.5 - 0.0
22/09:30pm 22.8 17.4 17.8 73 3.1 S 43 56 23 30 1009.4 - 0.0
22/09:00pm 23.2 18.4 18.3 74 3.1 S 41 54 22 29 1009.2 1009.2 0.0
22/08:30pm 23.6 18.9 17.8 70 3.6 S 39 52 21 28 1009.1 - 0.0
22/08:00pm 24.0 19.1 17.2 65 4.2 S 39 54 21 29 1008.8 - 0.0
22/07:30pm 24.5 20.2 16.9 62 4.7 S 35 46 19 25 1008.6 - 0.0
22/07:00pm 24.7 22.0 19.2 71 3.5 SSW 32 44 17 24 1008.3 - 0.0
22/06:30pm 24.9 21.3 18.6 68 4.0 SSW 35 48 19 26 1008.1 - 0.0
22/06:00pm 25.5 21.5 18.6 65 4.4 SSW 37 50 20 27 1007.8 1007.8 0.0
22/05:30pm 25.5 21.8 19.1 67 4.1 SSW 37 48 20 26 1007.6 - 0.0
22/05:00pm 25.6 21.0 18.9 66 4.3 SSW 41 50 22 27 1007.5 - 0.0
22/04:30pm 26.4 22.1 18.7 62 4.9 SSW 39 52 21 28 1007.7 - 0.0
22/04:00pm 26.7 22.0 18.7 61 5.1 SSW 41 56 22 30 1007.9 - 0.0
22/03:30pm 26.8 22.2 18.1 59 5.5 SSW 39 50 21 27 1008.1 - 0.0
22/03:00pm 26.7 21.9 18.4 60 5.3 SSW 41 50 22 27 1008.4 1008.4 0.0
22/02:30pm 27.0 21.9 17.6 56 5.9 SSW 41 52 22 28 1008.6 - 0.0
22/02:00pm 26.9 22.7 18.1 58 5.6 SSW 37 48 20 26 1008.8 - 0.0
22/01:30pm 26.9 22.3 18.1 58 5.6 SSW 39 48 21 26 1009.0 - 0.0
22/01:00pm 26.8 23.3 18.7 61 5.2 SSW 35 44 19 24 1009.2 - 0.0
22/12:30pm 27.3 23.3 18.5 58 5.6 SSW 37 44 20 24 1009.3 - 0.0
22/12:00pm 27.2 23.5 18.4 58 5.6 SSW 35 43 19 23 1009.4 1009.4 0.0
22/11:30am 26.1 23.2 18.9 64 4.6 SSW 32 41 17 22 1009.6 - 0.0
22/11:00am 26.6 21.7 14.4 47 7.3 SSW 33 43 18 23 1009.7 - 0.0
22/10:30am 26.5 21.8 14.9 49 7.0 S 33 41 18 22 1009.8 - 0.0
22/10:00am 25.6 20.8 15.7 54 6.0 S 35 43 19 23 1009.7 - 0.0
22/09:30am 25.3 21.6 16.9 59 5.2 S 32 39 17 21 1009.8 - 0.0
22/09:00am 24.9 22.0 17.9 65 4.4 SSW 30 39 16 21 1009.9 1009.9 0.0
22/08:30am 24.5 22.1 18.3 68 3.9 S 28 35 15 19 1009.8 - 0.0
22/08:00am 23.7 21.7 19.2 76 2.9 S 28 35 15 19 1009.7 - 0.0
22/07:30am 23.1 21.1 19.2 79 2.5 S 28 37 15 20 1009.5 - 0.0
22/07:00am 22.6 20.6 19.1 80 2.2 S 28 35 15 19 1009.3 - 0.0
22/06:47am 22.3 20.3 19.2 82 2.0 S 28 37 15 20 1009.2 - 0.0
22/06:30am 22.0 19.6 19.0 83 1.9 SSW 30 39 16 21 1008.9 - 0.0
22/06:00am 21.8 20.1 19.0 84 1.8 SSW 26 33 14 18 1008.7 1008.7 0.0
22/05:34am 21.8 19.7 19.0 84 1.8 SSW 28 35 15 19 1008.6 - 0.0
22/05:30am 21.8 19.6 18.8 83 1.9 SSW 28 35 15 19 1008.7 - 0.0
22/05:29am 21.8 19.7 19.0 84 1.8 SSW 28 35 15 19 1008.7 - 0.0
22/05:15am 21.8 20.0 18.8 83 1.9 SSW 26 33 14 18 1008.6 - 0.0
22/05:00am 21.8 20.4 18.8 83 1.9 S 24 32 13 17 1008.5 - 0.0
22/04:41am 21.8 19.7 19.0 84 1.8 SSW 28 35 15 19 1008.4 - 0.0
22/04:30am 21.9 20.2 18.9 83 1.9 SSW 26 32 14 17 1008.3 - 0.0
22/04:00am 22.1 21.0 19.4 85 1.7 SSW 24 32 13 17 1008.3 - 0.0
22/03:30am 22.0 20.8 19.3 85 1.7 SSW 24 32 13 17 1008.1 - 0.0
22/03:00am 22.1 21.3 19.3 84 1.8 SSW 22 30 12 16 1008.2 1008.2 0.0
22/02:30am 22.1 21.3 19.3 84 1.8 SSW 22 28 12 15 1008.0 - 0.0
22/02:00am 22.1 21.4 19.4 85 1.7 SW 22 32 12 17 1007.9 - 0.0
22/01:42am 22.0 20.8 19.3 85 1.7 SSW 24 30 13 16 1007.9 - 0.0
22/01:41am 22.1 20.9 19.3 84 1.8 SSW 24 30 13 16 1007.9 - 0.0
22/01:30am 22.0 20.8 19.2 84 1.8 SSW 24 32 13 17 1007.8 - 0.0
22/01:00am 22.1 20.5 19.3 84 1.8 SW 26 33 14 18 1008.0 - 0.0
22/12:30am 22.1 20.5 19.3 84 1.8 SW 26 35 14 19 1008.2 - 0.0
22/12:00am 22.3 20.3 19.2 82 2.0 SW 28 35 15 19 1008.4 1008.4 0.0
 
Date/Time
WST
Temp
°C
App
Temp
°C
Dew
Point
°C
Rel
Hum
%
Delta-T
°C
Wind Press
QNH
hPa
Press
MSL
hPa
Rain since
9am
mm
Dir  Spd
km/h
Gust
km/h
Spd
kts
Gust
kts
21/11:30pm 22.3 20.7 19.2 82 2.0 SW 26 35 14 19 1008.3 - 0.0
21/11:00pm 22.4 20.4 19.1 81 2.1 SW 28 35 15 19 1008.5 - 0.0
21/10:30pm 22.5 20.4 19.0 80 2.2 SW 28 35 15 19 1008.5 - 0.0
21/10:00pm 22.6 20.2 19.1 80 2.2 SW 30 35 16 19 1008.2 - 0.0
21/09:30pm 22.7 20.7 19.2 80 2.2 SW 28 35 15 19 1008.3 - 0.0
21/09:21pm 22.8 20.8 19.2 80 2.3 SW 28 37 15 20 1008.2 - 0.0
21/09:00pm 22.8 20.4 19.0 79 2.4 SW 30 39 16 21 1007.9 1007.9 0.0
21/08:30pm 23.0 21.0 19.1 78 2.5 SW 28 35 15 19 1007.8 - 0.0
21/08:00pm 23.1 20.3 19.0 78 2.6 SW 32 41 17 22 1007.4 - 0.0
21/07:30pm 23.4 20.9 18.8 75 2.9 SW 30 39 16 21 1007.2 - 0.0
21/07:00pm 24.2 22.2 19.2 73 3.2 SW 28 39 15 21 1006.8 - 0.0
21/06:30pm 24.5 21.9 18.7 70 3.7 SW 30 39 16 21 1006.5 - 0.0
21/06:00pm 25.1 22.0 18.8 68 4.0 SW 33 43 18 23 1006.1 1006.1 0.0
21/05:30pm 25.7 23.2 18.8 65 4.4 SW 30 39 16 21 1006.0 - 0.0
21/05:00pm 26.0 23.3 19.3 66 4.3 SW 32 39 17 21 1005.8 - 0.0
21/04:30pm 26.1 23.5 19.4 66 4.3 SW 32 41 17 22 1005.9 - 0.0
21/04:00pm 26.5 23.6 18.9 63 4.9 SW 32 39 17 21 1005.8 - 0.0
21/03:30pm 26.4 23.7 19.3 65 4.6 SW 32 41 17 22 1005.7 - 0.0
21/03:00pm 27.4 25.8 20.1 64 4.8 SW 28 35 15 19 1005.8 1005.8 0.0
21/02:30pm 27.4 24.9 18.9 59 5.5 SW 30 39 16 21 1005.9 - 0.0
21/02:00pm 26.8 24.7 18.9 62 5.1 SW 28 37 15 20 1006.1 - 0.0
21/01:30pm 26.8 23.9 18.0 58 5.6 SW 30 39 16 21 1006.4 - 0.0
21/01:00pm 27.2 24.5 18.4 58 5.6 SW 30 39 16 21 1006.4 - 0.0
21/12:30pm 26.6 23.6 18.6 61 5.1 SW 32 37 17 20 1006.4 - 0.0
21/12:00pm 26.3 24.3 19.2 65 4.6 SW 28 39 15 21 1006.5 1006.5 0.0
21/11:30am 25.6 23.6 19.2 67 4.1 SW 28 35 15 19 1006.5 - 0.0
21/11:00am 25.0 23.1 19.4 71 3.6 SSW 28 33 15 18 1006.8 - 0.0
21/10:39am 25.2 24.0 19.3 70 3.8 SSW 24 32 13 17 1007.0 - 0.0
21/10:30am 24.8 23.3 19.5 72 3.4 SSW 26 33 14 18 1007.2 - 0.0
21/10:26am 24.5 23.0 19.4 73 3.3 SSW 26 33 14 18 1007.3 - 0.0
21/10:00am 24.8 23.1 19.0 70 3.7 SSW 26 33 14 18 1007.3 - 0.0
21/09:30am 24.6 23.0 19.1 71 3.5 SSW 26 33 14 18 1007.2 - 0.0
21/09:17am 24.4 22.8 19.3 73 3.3 SSW 26 32 14 17 1007.3 - 0.0
21/09:00am 23.9 22.8 19.4 76 2.9 SSW 24 30 13 16 1007.4 1007.4 0.0
21/08:58am 24.0 22.9 19.5 76 2.9 SSW 24 30 13 16 1007.5 - 0.0
21/08:30am 23.7 22.3 18.8 74 3.1 SSW 24 30 13 16 1007.2 - 0.0
21/08:00am 23.3 21.8 18.6 75 3.0 SSW 24 32 13 17 1006.9 - 0.0
21/07:30am 23.0 21.9 18.7 77 2.7 SSW 22 28 12 15 1006.8 - 0.0
21/07:00am 22.4 21.0 18.8 80 2.3 SSW 24 30 13 16 1006.5 - 0.0
21/06:30am 21.8 20.3 18.6 82 2.0 S 24 30 13 16 1006.1 - 0.0
21/06:00am 21.6 20.5 18.7 83 1.8 SSW 22 30 12 16 1005.8 1005.8 0.0
21/05:30am 21.6 20.6 18.9 84 1.7 SSW 22 28 12 15 1005.7 - 0.0
21/05:00am 21.7 21.2 19.0 84 1.7 SSW 20 28 11 15 1005.4 - 0.0

Other Formats:

Comma delimited format used in spreadsheet applications
http://www.bom.gov.au/fwo/IDW60801/IDW60801.94300.axf

JavaScript Object Notation format (JSON) in row-major order
http://www.bom.gov.au/fwo/IDW60801/IDW60801.94300.json